Time;durP1;ratioP1;P1;durP2;ratioP2;P2;SDS_P1;SDS_P2;PMS_P1;PMS_P2;Temp;Humidity;BMP_temperature;BMP_pressure;BME280_temperature;BME280_humidity;BME280_pressure;Samples;Min_cycle;Max_cycle;Signal;HPM_P1;HPM_P2
2023/04/20 00:00:44;;;;;;;17.08;4.75;;;;;;;6.46;43.93;102084.47;5062402;28;20499;-72
2023/04/20 00:03:09;;;;;;;16.80;4.85;;;;;;;6.44;44.50;102089.66;5062914;28;20111;-72
2023/04/20 00:05:36;;;;;;;15.75;4.90;;;;;;;6.47;44.25;102090.63;5060939;28;20144;-71
2023/04/20 00:08:01;;;;;;;17.13;4.80;;;;;;;6.38;44.39;102091.16;5057321;28;20036;-73
2023/04/20 00:10:27;;;;;;;17.70;4.75;;;;;;;6.39;44.83;102082.41;5063957;28;20371;-73
2023/04/20 00:12:52;;;;;;;15.75;4.63;;;;;;;6.31;44.52;102078.59;5061955;28;20407;-74
2023/04/20 00:15:17;;;;;;;17.77;5.10;;;;;;;6.31;44.55;102082.09;5062615;28;20041;-73
2023/04/20 00:17:43;;;;;;;16.58;4.35;;;;;;;6.30;44.18;102082.03;5063240;28;20029;-73
2023/04/20 00:20:09;;;;;;;17.45;4.95;;;;;;;6.26;44.76;102068.78;5061338;28;20458;-73
2023/04/20 00:22:35;;;;;;;16.27;4.90;;;;;;;6.26;44.66;102070.50;5064491;28;20483;-73
2023/04/20 00:25:00;;;;;;;15.25;4.90;;;;;;;6.25;45.01;102063.47;5056927;28;20103;-73
2023/04/20 00:27:26;;;;;;;17.00;4.90;;;;;;;6.22;45.11;102058.09;5062304;28;20047;-73
2023/04/20 00:29:52;;;;;;;17.75;4.90;;;;;;;6.22;45.19;102056.34;5062277;28;20024;-73
2023/04/20 00:32:17;;;;;;;14.88;4.55;;;;;;;6.16;45.10;102053.50;5062646;28;20430;-73
2023/04/20 00:34:42;;;;;;;15.73;4.72;;;;;;;6.09;45.03;102049.69;5063054;28;20028;-73
2023/04/20 00:37:08;;;;;;;16.45;4.60;;;;;;;6.07;45.37;102040.88;5061226;28;20032;-73
2023/04/20 00:39:33;;;;;;;16.35;4.82;;;;;;;6.03;45.78;102035.41;5064205;28;20035;-73
2023/04/20 00:42:08;;;;;;;16.83;4.70;;;;;;;5.93;45.77;102041.97;5061171;28;20021;-73
2023/04/20 00:44:34;;;;;;;17.67;4.70;;;;;;;5.97;46.03;102038.69;5055818;28;20086;-73
2023/04/20 00:47:00;;;;;;;17.52;4.93;;;;;;;5.88;46.40;102033.91;5063925;28;20045;-73
2023/04/20 00:49:28;;;;;;;16.13;4.95;;;;;;;5.85;45.48;102022.38;5061286;28;20383;-72
2023/04/20 00:51:57;;;;;;;16.38;4.43;;;;;;;5.85;46.18;102031.13;5063322;28;20021;-73
2023/04/20 00:54:23;;;;;;;18.63;5.20;;;;;;;5.79;45.61;102015.13;5061635;28;20031;-72
2023/04/20 00:56:49;;;;;;;16.45;4.72;;;;;;;5.71;46.24;102012.19;5061042;28;20049;-72
2023/04/20 00:59:15;;;;;;;17.35;4.60;;;;;;;5.73;46.20;102004.38;5062860;28;20020;-73
2023/04/20 01:01:41;;;;;;;15.85;4.75;;;;;;;5.65;46.93;102000.53;5061342;28;20108;-72
2023/04/20 01:04:07;;;;;;;17.60;5.00;;;;;;;5.69;46.81;101997.22;5067591;28;20032;-72
2023/04/20 01:06:33;;;;;;;15.75;4.70;;;;;;;5.61;47.86;101988.09;5064364;28;20025;-73
2023/04/20 01:08:58;;;;;;;16.70;4.80;;;;;;;5.51;46.96;101986.84;5067236;28;20115;-73
2023/04/20 01:11:23;;;;;;;17.27;5.18;;;;;;;5.46;47.43;101984.03;5065061;28;20112;-72
2023/04/20 01:13:49;;;;;;;16.55;4.70;;;;;;;5.41;48.97;101985.53;5066066;28;20029;-72
2023/04/20 01:16:15;;;;;;;16.45;4.60;;;;;;;5.36;48.17;101976.59;5066000;28;20056;-72
2023/04/20 01:18:45;;;;;;;16.17;4.70;;;;;;;5.31;49.03;101972.84;5064439;28;20120;-71
2023/04/20 01:21:16;;;;;;;15.38;4.55;;;;;;;5.30;48.38;101965.81;5067161;28;20032;-72
2023/04/20 01:23:41;;;;;;;16.75;4.65;;;;;;;5.31;48.59;101970.22;5064482;28;20036;-73
2023/04/20 01:26:12;;;;;;;18.10;4.88;;;;;;;5.33;48.38;101963.31;5067033;28;20020;-73
2023/04/20 01:28:37;;;;;;;15.35;4.60;;;;;;;5.28;48.88;101959.59;5064145;28;20411;-72
2023/04/20 01:31:04;;;;;;;15.60;4.40;;;;;;;5.26;48.51;101963.88;5067373;28;20029;-74
2023/04/20 01:33:29;;;;;;;15.75;4.60;;;;;;;5.21;48.93;101961.97;5063808;28;20485;-73
2023/04/20 01:35:55;;;;;;;15.88;4.53;;;;;;;5.26;48.94;101948.13;5066336;28;20108;-73
2023/04/20 01:38:22;;;;;;;16.02;4.65;;;;;;;5.27;49.52;101944.69;5064980;28;20411;-73
2023/04/20 01:40:48;;;;;;;15.98;4.60;;;;;;;5.18;49.28;101951.31;5065064;28;20465;-73
2023/04/20 01:43:16;;;;;;;16.52;4.55;;;;;;;5.17;49.15;101944.31;5066064;28;20031;-73
2023/04/20 01:45:41;;;;;;;17.25;4.68;;;;;;;5.16;49.82;101937.25;5064081;28;20132;-73
2023/04/20 01:48:07;;;;;;;17.33;4.78;;;;;;;5.16;49.44;101942.50;5066781;28;20464;-73
2023/04/20 01:50:32;;;;;;;16.17;4.43;;;;;;;5.20;49.53;101935.69;5063626;28;20025;-73
2023/04/20 01:52:57;;;;;;;14.30;4.53;;;;;;;5.19;49.49;101931.25;5066288;28;20528;-73
2023/04/20 01:55:23;;;;;;;16.83;4.68;;;;;;;5.27;50.21;101928.97;5064328;28;20381;-73
2023/04/20 01:57:48;;;;;;;16.15;4.60;;;;;;;5.21;49.77;101927.88;5063848;28;20080;-73
2023/04/20 02:00:14;;;;;;;16.45;4.75;;;;;;;5.23;50.79;101926.22;5065843;28;20036;-73
2023/04/20 02:02:40;;;;;;;16.95;4.82;;;;;;;5.21;49.56;101917.41;5063672;28;20029;-74
2023/04/20 02:05:06;;;;;;;16.77;5.03;;;;;;;5.06;50.92;101914.09;5066891;28;20039;-73
2023/04/20 02:07:31;;;;;;;17.42;4.78;;;;;;;4.98;50.81;101915.47;5058872;28;20025;-74
2023/04/20 02:09:56;;;;;;;17.48;4.63;;;;;;;4.94;51.20;101908.31;5065885;28;20040;-73
2023/04/20 02:12:22;;;;;;;18.55;4.97;;;;;;;4.90;51.12;101902.03;5064250;28;20119;-73
2023/04/20 02:14:47;;;;;;;17.10;4.90;;;;;;;4.86;51.10;101895.78;5064117;28;20056;-74
2023/04/20 02:17:13;;;;;;;16.58;4.65;;;;;;;4.83;51.66;101895.63;5065510;28;20053;-73
2023/04/20 02:19:39;;;;;;;16.10;4.60;;;;;;;4.83;51.78;101900.84;5063343;28;20108;-73
2023/04/20 02:22:04;;;;;;;15.32;4.95;;;;;;;4.76;51.79;101892.66;5066143;28;20070;-73
2023/04/20 02:24:29;;;;;;;18.55;4.70;;;;;;;4.71;51.88;101893.34;5063230;28;20103;-71
2023/04/20 02:26:55;;;;;;;17.52;5.18;;;;;;;4.61;51.70;101888.53;5065104;28;20025;-72
2023/04/20 02:29:21;;;;;;;17.75;5.13;;;;;;;4.70;52.59;101882.81;5064062;28;20021;-72
2023/04/20 02:31:46;;;;;;;18.23;5.00;;;;;;;4.67;52.04;101878.31;5064098;28;20033;-73
2023/04/20 02:34:12;;;;;;;15.52;4.65;;;;;;;4.65;52.51;101884.34;5065211;28;20066;-72
2023/04/20 02:36:37;;;;;;;16.40;4.90;;;;;;;4.57;53.11;101885.69;5062519;28;20112;-72
2023/04/20 02:39:03;;;;;;;17.20;4.70;;;;;;;4.62;53.32;101884.19;5066082;28;20052;-73
2023/04/20 02:41:28;;;;;;;17.98;5.00;;;;;;;4.52;53.36;101880.25;5062871;28;20097;-73
2023/04/20 02:43:53;;;;;;;16.88;4.90;;;;;;;4.58;53.67;101875.28;5064860;28;20032;-72
2023/04/20 02:46:19;;;;;;;17.88;4.97;;;;;;;4.59;53.68;101873.56;5064178;28;20040;-72
2023/04/20 02:48:45;;;;;;;17.00;5.03;;;;;;;4.58;53.86;101877.91;5063321;28;20041;-72
2023/04/20 02:51:10;;;;;;;16.48;5.03;;;;;;;4.53;54.41;101871.59;5065369;28;20028;-72
2023/04/20 02:53:36;;;;;;;20.55;5.40;;;;;;;4.45;54.61;101863.34;5062168;28;20040;-72
2023/04/20 02:56:01;;;;;;;16.30;5.05;;;;;;;4.43;55.23;101859.78;5065319;28;20085;-73
2023/04/20 02:58:27;;;;;;;18.52;5.18;;;;;;;4.45;55.46;101859.84;5062933;28;20041;-73
2023/04/20 03:00:58;;;;;;;17.45;5.20;;;;;;;4.38;55.55;101863.91;5064106;28;20434;-72
2023/04/20 03:03:23;;;;;;;17.30;5.65;;;;;;;4.42;56.38;101868.47;5063386;28;20410;-74
2023/04/20 03:05:49;;;;;;;18.48;5.32;;;;;;;4.37;56.49;101859.50;5063979;28;20032;-74
2023/04/20 03:08:14;;;;;;;17.42;5.13;;;;;;;4.39;57.39;101860.47;5064341;28;20035;-73
2023/04/20 03:10:39;;;;;;;17.33;5.30;;;;;;;4.41;57.85;101861.41;5062112;28;20033;-74
2023/04/20 03:13:05;;;;;;;19.02;5.40;;;;;;;4.43;57.95;101854.56;5065459;28;20071;-73
2023/04/20 03:15:30;;;;;;;17.60;5.35;;;;;;;4.45;58.24;101846.75;5060594;28;20092;-74
2023/04/20 03:17:56;;;;;;;18.90;5.57;;;;;;;4.37;58.13;101849.03;5064195;28;20051;-73
2023/04/20 03:20:21;;;;;;;19.55;6.00;;;;;;;4.39;59.01;101836.91;5063348;28;20028;-74
2023/04/20 03:22:46;;;;;;;17.50;5.43;;;;;;;4.45;59.43;101829.31;5061351;28;20037;-74
2023/04/20 03:25:12;;;;;;;17.20;5.10;;;;;;;4.56;59.84;101839.38;5063835;28;20047;-73
2023/04/20 03:27:37;;;;;;;17.20;5.70;;;;;;;4.62;59.91;101835.31;5061704;28;20025;-74
2023/04/20 03:30:03;;;;;;;17.88;5.70;;;;;;;4.66;60.45;101834.63;5057368;28;20032;-73
2023/04/20 03:32:28;;;;;;;18.38;5.60;;;;;;;4.70;60.39;101835.66;5064387;28;20024;-74
2023/04/20 03:34:53;;;;;;;17.08;5.50;;;;;;;4.77;60.57;101831.59;5062505;28;20078;-73
2023/04/20 03:37:19;;;;;;;17.05;5.50;;;;;;;4.83;60.23;101837.09;5062779;28;20029;-74
2023/04/20 03:39:44;;;;;;;17.85;5.68;;;;;;;4.91;61.17;101840.94;5064010;28;20107;-73
2023/04/20 03:42:09;;;;;;;18.02;5.72;;;;;;;4.98;61.24;101821.13;5061410;28;20040;-73
2023/04/20 03:44:34;;;;;;;18.75;5.57;;;;;;;5.01;61.19;101822.16;5064704;28;20032;-74
2023/04/20 03:47:00;;;;;;;17.35;5.70;;;;;;;5.05;61.34;101808.38;5061939;28;20464;-73
2023/04/20 03:49:28;;;;;;;18.10;5.78;;;;;;;5.12;61.39;101814.75;5063581;28;20059;-74
2023/04/20 03:51:54;;;;;;;18.48;5.78;;;;;;;5.14;62.22;101818.34;5062270;28;20115;-73
2023/04/20 03:54:19;;;;;;;19.23;5.75;;;;;;;5.19;62.15;101827.28;5062815;28;20492;-74
2023/04/20 03:56:44;;;;;;;17.63;5.70;;;;;;;5.22;61.96;101810.78;5063621;28;20513;-74
2023/04/20 03:59:10;;;;;;;17.35;5.50;;;;;;;5.24;62.38;101804.78;5061324;28;20032;-74
2023/04/20 04:01:37;;;;;;;18.02;5.95;;;;;;;5.32;62.93;101807.72;5064612;28;20029;-74
2023/04/20 04:04:03;;;;;;;17.65;5.68;;;;;;;5.38;63.13;101805.34;5056883;28;20068;-74
2023/04/20 04:06:28;;;;;;;19.08;5.80;;;;;;;5.37;63.03;101802.66;5062566;28;20538;-74
2023/04/20 04:08:54;;;;;;;19.88;6.03;;;;;;;5.41;63.18;101796.72;5061131;28;20021;-74
2023/04/20 04:11:20;;;;;;;18.10;5.72;;;;;;;5.40;63.47;101787.03;5062681;28;20468;-74
2023/04/20 04:13:45;;;;;;;17.80;5.60;;;;;;;5.44;63.87;101783.72;5063448;28;20020;-74
2023/04/20 04:16:10;;;;;;;18.30;5.93;;;;;;;5.43;64.27;101799.38;5060935;28;20519;-74
2023/04/20 04:18:36;;;;;;;18.52;5.90;;;;;;;5.43;64.09;101792.41;5064424;28;20386;-74
2023/04/20 04:21:02;;;;;;;18.10;5.72;;;;;;;5.44;64.56;101791.59;5059895;28;20025;-74
2023/04/20 04:23:27;;;;;;;18.45;5.95;;;;;;;5.43;64.90;101788.91;5063380;28;20059;-74
2023/04/20 04:25:53;;;;;;;18.50;5.80;;;;;;;5.44;65.15;101783.72;5060895;28;20033;-74
2023/04/20 04:28:18;;;;;;;18.10;5.82;;;;;;;5.49;65.98;101778.66;5062301;28;20043;-74
2023/04/20 04:30:44;;;;;;;16.98;5.63;;;;;;;5.53;66.20;101786.72;5063397;28;20024;-74
2023/04/20 04:33:11;;;;;;;20.20;6.25;;;;;;;5.58;66.04;101769.44;5060854;28;20468;-74
2023/04/20 04:35:39;;;;;;;18.83;6.20;;;;;;;5.64;66.55;101765.28;5064227;28;20037;-74
2023/04/20 04:38:04;;;;;;;17.50;6.13;;;;;;;5.64;66.61;101753.03;5059361;28;20083;-74
2023/04/20 04:40:31;;;;;;;20.25;6.70;;;;;;;5.70;67.09;101758.50;5066361;28;20375;-72
2023/04/20 04:42:57;;;;;;;18.67;6.30;;;;;;;5.72;67.23;101750.69;5065676;28;20040;-73
2023/04/20 04:45:24;;;;;;;19.25;6.10;;;;;;;5.77;67.59;101751.78;5066460;28;20083;-75
2023/04/20 04:47:51;;;;;;;18.48;6.20;;;;;;;5.82;67.55;101747.59;5066424;28;20105;-74
2023/04/20 04:50:17;;;;;;;19.65;6.47;;;;;;;5.87;67.55;101748.69;5065805;28;20032;-72
2023/04/20 04:52:42;;;;;;;19.15;6.40;;;;;;;5.90;67.62;101751.41;5067386;28;20098;-72
2023/04/20 04:55:08;;;;;;;19.08;6.25;;;;;;;5.91;67.50;101742.72;5064299;28;20498;-73
2023/04/20 04:57:34;;;;;;;19.52;6.30;;;;;;;5.92;68.25;101754.97;5068161;28;20124;-73
2023/04/20 04:59:59;;;;;;;19.10;6.20;;;;;;;5.94;67.88;101734.94;5064796;28;20064;-73
2023/04/20 05:02:25;;;;;;;18.58;5.95;;;;;;;6.02;68.48;101743.13;5048619;28;20029;-72
2023/04/20 05:04:50;;;;;;;19.42;6.30;;;;;;;6.02;68.48;101744.88;5066237;28;20036;-72
2023/04/20 05:07:16;;;;;;;19.85;6.20;;;;;;;6.05;69.01;101745.00;5063855;28;20121;-72
2023/04/20 05:09:41;;;;;;;17.88;6.03;;;;;;;6.07;68.65;101745.94;5067142;28;20064;-72
2023/04/20 05:12:07;;;;;;;17.83;5.90;;;;;;;6.11;68.41;101745.22;5064151;28;20116;-73
2023/04/20 05:14:33;;;;;;;18.48;5.90;;;;;;;6.17;67.97;101745.44;5067235;28;20037;-73
2023/04/20 05:16:59;;;;;;;19.23;6.30;;;;;;;6.21;68.21;101744.72;5064523;28;20094;-73
2023/04/20 05:19:25;;;;;;;19.00;6.40;;;;;;;6.30;67.78;101745.88;5066138;28;20060;-73
2023/04/20 05:21:50;;;;;;;19.10;6.00;;;;;;;6.30;70.31;101740.63;5065632;28;20491;-73
2023/04/20 05:24:16;;;;;;;19.33;6.00;;;;;;;6.38;69.61;101733.94;5064841;28;20064;-73
2023/04/20 05:26:42;;;;;;;19.23;6.57;;;;;;;6.35;71.66;101739.06;5066845;28;20037;-74
2023/04/20 05:29:07;;;;;;;19.05;6.60;;;;;;;6.36;72.98;101741.72;5063656;28;20036;-72
2023/04/20 05:31:32;;;;;;;17.27;6.05;;;;;;;6.35;71.77;101737.34;5067411;28;20468;-73
2023/04/20 05:33:58;;;;;;;19.73;6.60;;;;;;;6.41;70.97;101741.94;5059441;28;20468;-72
2023/04/20 05:36:23;;;;;;;18.83;6.40;;;;;;;6.38;71.42;101739.19;5062592;28;20479;-75
2023/04/20 05:38:49;;;;;;;19.35;6.70;;;;;;;6.39;71.63;101744.50;5067555;28;20032;-72
2023/04/20 05:41:14;;;;;;;18.40;6.18;;;;;;;6.39;71.98;101752.38;5067684;28;20115;-72
2023/04/20 05:43:40;;;;;;;19.38;6.60;;;;;;;6.40;70.62;101743.63;5067281;28;20036;-78
2023/04/20 05:46:05;;;;;;;19.83;6.35;;;;;;;6.45;70.51;101734.19;5067323;28;20033;-76
2023/04/20 05:48:30;;;;;;;17.95;6.05;;;;;;;6.49;69.28;101731.69;5065512;28;20033;-74
2023/04/20 05:50:56;;;;;;;18.63;6.57;;;;;;;6.52;69.08;101735.28;5065757;28;20051;-70
2023/04/20 05:53:21;;;;;;;18.50;6.22;;;;;;;6.54;69.45;101723.13;5066411;28;20411;-75
2023/04/20 05:55:47;;;;;;;18.58;6.45;;;;;;;6.58;69.74;101732.91;5064937;28;20037;-73
2023/04/20 05:58:13;;;;;;;18.95;6.40;;;;;;;6.61;69.50;101733.00;5066283;28;20052;-72
2023/04/20 06:00:38;;;;;;;17.90;6.30;;;;;;;6.63;69.50;101733.06;5065534;28;20037;-73
2023/04/20 06:03:04;;;;;;;19.75;6.43;;;;;;;6.69;69.36;101732.38;5063159;28;20021;-72
2023/04/20 06:05:29;;;;;;;18.85;6.63;;;;;;;6.73;69.18;101729.03;5063386;28;20033;-74
2023/04/20 06:07:54;;;;;;;18.85;6.40;;;;;;;6.79;68.50;101729.22;5063539;28;20025;-73
2023/04/20 06:10:20;;;;;;;19.27;6.80;;;;;;;6.82;69.26;101720.56;5061609;28;20025;-78
2023/04/20 06:12:46;;;;;;;18.48;6.30;;;;;;;6.87;68.66;101713.69;5082746;28;20033;-73
2023/04/20 06:15:12;;;;;;;21.05;6.57;;;;;;;6.96;68.12;101714.91;5062117;28;20035;-71
2023/04/20 06:17:39;;;;;;;19.77;6.93;;;;;;;7.09;68.49;101728.44;5067974;28;20049;-71
2023/04/20 06:20:09;;;;;;;19.83;6.57;;;;;;;7.16;68.50;101719.91;5066813;28;20431;-72
2023/04/20 06:22:34;;;;;;;19.17;6.80;;;;;;;7.23;68.90;101721.00;5066598;28;20025;-73
2023/04/20 06:25:00;;;;;;;19.33;6.80;;;;;;;7.30;68.49;101713.34;5066373;28;20395;-73
2023/04/20 06:27:25;;;;;;;18.63;6.38;;;;;;;7.30;68.55;101715.97;5063226;28;20464;-71
2023/04/20 06:29:51;;;;;;;19.67;6.93;;;;;;;7.35;68.83;101712.63;5065608;28;20036;-72
2023/04/20 06:32:17;;;;;;;18.85;6.55;;;;;;;7.37;69.24;101714.47;5065525;28;20044;-72
2023/04/20 06:34:42;;;;;;;18.65;6.82;;;;;;;7.37;69.39;101710.91;5065383;28;20512;-72
2023/04/20 06:37:08;;;;;;;20.77;7.15;;;;;;;7.44;69.11;101707.63;5062417;28;20039;-73
2023/04/20 06:39:34;;;;;;;19.00;6.85;;;;;;;7.47;68.28;101707.72;5064493;28;20032;-73
2023/04/20 06:41:59;;;;;;;19.52;6.78;;;;;;;7.45;67.28;101702.41;5063796;28;20040;-73
2023/04/20 06:44:25;;;;;;;19.15;6.75;;;;;;;7.46;67.25;101703.31;5064039;28;20033;-74
2023/04/20 06:46:50;;;;;;;21.63;7.25;;;;;;;7.49;67.67;101695.53;5064857;28;20028;-71
2023/04/20 06:49:16;;;;;;;19.75;7.38;;;;;;;7.61;67.67;101692.38;5062599;28;20037;-74
2023/04/20 06:51:41;;;;;;;19.75;7.35;;;;;;;7.68;66.80;101703.09;5065612;28;20028;-74
2023/04/20 06:54:07;;;;;;;21.58;8.50;;;;;;;7.71;67.67;101706.69;5062602;28;20040;-74
2023/04/20 06:56:32;;;;;;;20.35;7.53;;;;;;;7.60;67.63;101704.63;5064457;28;20076;-73
2023/04/20 06:58:57;;;;;;;20.80;7.50;;;;;;;7.49;68.41;101695.53;5063315;28;20033;-73
2023/04/20 07:01:23;;;;;;;19.50;6.95;;;;;;;7.42;68.71;101698.81;5062868;28;20021;-74
2023/04/20 07:03:49;;;;;;;21.77;7.53;;;;;;;7.42;68.80;101698.81;5064738;28;20061;-74
2023/04/20 07:06:15;;;;;;;21.38;7.80;;;;;;;7.43;68.55;101687.44;5061901;28;20369;-74
2023/04/20 07:08:41;;;;;;;20.95;8.00;;;;;;;7.43;68.11;101690.97;5058182;28;20045;-80
2023/04/20 07:11:06;;;;;;;19.33;6.95;;;;;;;7.46;68.26;101695.44;5064744;28;20109;-74
2023/04/20 07:13:32;;;;;;;20.63;7.40;;;;;;;7.41;68.75;101687.41;5062826;28;20021;-74
2023/04/20 07:15:57;;;;;;;19.75;7.25;;;;;;;7.43;68.55;101690.06;5063341;28;20576;-74
2023/04/20 07:18:22;;;;;;;20.30;7.50;;;;;;;7.43;69.14;101690.97;5064212;28;20380;-75
2023/04/20 07:20:48;;;;;;;21.17;7.43;;;;;;;7.44;69.48;101691.84;5061998;28;20040;-74
2023/04/20 07:23:13;;;;;;;19.67;7.60;;;;;;;7.49;68.84;101698.16;5065089;28;20460;-74
2023/04/20 07:25:39;;;;;;;19.77;7.18;;;;;;;7.39;70.04;101701.34;5061486;28;20021;-76
2023/04/20 07:28:04;;;;;;;19.02;7.00;;;;;;;7.34;70.05;101698.59;5064330;28;20119;-76
2023/04/20 07:30:30;;;;;;;18.83;6.63;;;;;;;7.31;70.28;101690.56;5062993;28;20082;-75
2023/04/20 07:32:56;;;;;;;20.00;7.07;;;;;;;7.30;70.12;101704.59;5063098;28;20051;-76
2023/04/20 07:35:21;;;;;;;19.38;6.60;;;;;;;7.32;70.04;101693.28;5063987;28;20032;-79
2023/04/20 07:37:47;;;;;;;19.00;6.70;;;;;;;7.45;69.29;101698.91;5061534;28;20503;-75
2023/04/20 07:40:12;;;;;;;20.20;7.20;;;;;;;7.48;69.06;101691.09;5064969;28;20112;-76
2023/04/20 07:42:38;;;;;;;19.60;6.90;;;;;;;7.48;68.52;101694.66;5061854;28;20457;-76
2023/04/20 07:45:04;;;;;;;19.63;6.80;;;;;;;7.57;69.70;101690.47;5063928;28;20460;-74
2023/04/20 07:47:30;;;;;;;19.92;6.57;;;;;;;7.61;69.42;101680.09;5062462;28;20033;-72
2023/04/20 07:49:56;;;;;;;19.00;6.82;;;;;;;7.63;68.65;101691.56;5062760;28;20121;-75
2023/04/20 07:52:22;;;;;;;19.25;6.68;;;;;;;7.77;69.33;101691.97;5063535;28;20035;-73
2023/04/20 07:54:48;;;;;;;19.30;6.35;;;;;;;7.89;68.36;101699.31;5061400;28;20025;-72
2023/04/20 07:57:14;;;;;;;19.33;6.35;;;;;;;8.08;68.12;101697.22;5064671;28;20048;-76
2023/04/20 07:59:39;;;;;;;19.92;6.55;;;;;;;8.29;67.40;101691.66;5061133;28;20066;-75
2023/04/20 08:02:05;;;;;;;19.67;6.43;;;;;;;8.53;66.04;101702.91;5063687;28;20122;-74
2023/04/20 08:04:30;;;;;;;19.27;5.95;;;;;;;8.58;65.45;101692.47;5058910;28;20097;-76
2023/04/20 08:06:56;;;;;;;18.55;6.50;;;;;;;8.64;67.11;101695.25;5062513;28;20079;-74
2023/04/20 08:09:21;;;;;;;18.95;6.57;;;;;;;8.76;66.81;101694.69;5061583;28;20028;-75
2023/04/20 08:11:47;;;;;;;18.90;6.50;;;;;;;8.83;66.73;101682.56;5063803;28;20032;-73
2023/04/20 08:14:14;;;;;;;17.50;6.18;;;;;;;8.75;65.24;101687.63;5059189;28;20029;-74
2023/04/20 08:16:39;;;;;;;19.08;6.47;;;;;;;8.78;67.08;101681.53;5056669;28;20049;-73
2023/04/20 08:19:10;;;;;;;18.23;6.30;;;;;;;8.83;66.15;101682.56;5063910;28;20031;-74
2023/04/20 08:21:37;;;;;;;18.10;6.28;;;;;;;8.89;65.98;101686.22;5061483;28;20029;-74
2023/04/20 08:24:03;;;;;;;19.33;6.15;;;;;;;9.08;64.24;101684.03;5063183;28;20021;-75
2023/04/20 08:26:30;;;;;;;18.85;6.18;;;;;;;9.15;64.13;101679.81;5062335;28;20372;-73
2023/04/20 08:28:56;;;;;;;18.08;6.13;;;;;;;9.20;65.02;101668.50;5062435;28;20052;-73
2023/04/20 08:31:22;;;;;;;18.15;5.90;;;;;;;9.24;64.40;101669.47;5063090;28;20033;-74
2023/04/20 08:33:47;;;;;;;18.60;6.32;;;;;;;9.44;64.42;101667.28;5061354;28;20037;-74
2023/04/20 08:36:12;;;;;;;17.42;5.68;;;;;;;9.83;63.58;101665.44;5063973;28;20472;-75
2023/04/20 08:38:38;;;;;;;17.17;5.78;;;;;;;10.21;61.72;101660.03;5060979;28;20376;-73
2023/04/20 08:41:03;;;;;;;17.60;5.85;;;;;;;10.50;60.34;101655.31;5063229;28;20448;-73
2023/04/20 08:43:29;;;;;;;16.90;5.50;;;;;;;10.97;59.82;101657.84;5061999;28;20032;-73
2023/04/20 08:45:58;;;;;;;18.45;5.60;;;;;;;11.44;57.91;101646.16;5062110;28;20048;-73
2023/04/20 08:48:25;;;;;;;17.25;5.63;;;;;;;11.55;57.58;101648.06;5062602;28;20379;-74
2023/04/20 08:50:52;;;;;;;17.95;5.50;;;;;;;11.35;56.11;101654.00;5061360;28;20100;-75
2023/04/20 08:53:17;;;;;;;16.65;5.20;;;;;;;10.78;57.75;101643.44;5063645;28;20476;-74
2023/04/20 08:55:42;;;;;;;16.27;5.43;;;;;;;10.48;58.87;101650.84;5060595;28;20064;-75
2023/04/20 08:58:08;;;;;;;19.02;5.90;;;;;;;10.33;60.20;101646.16;5063678;28;20464;-75
2023/04/20 09:00:33;;;;;;;17.70;5.78;;;;;;;10.37;60.61;101645.38;5061467;28;20436;-75
2023/04/20 09:03:00;;;;;;;17.77;5.60;;;;;;;10.29;59.96;101637.28;5062336;28;20029;-74
2023/04/20 09:05:27;;;;;;;17.02;5.70;;;;;;;10.12;60.69;101645.78;5062308;28;20130;-74
2023/04/20 09:07:55;;;;;;;17.95;5.88;;;;;;;10.05;61.15;101643.88;5061765;28;20029;-75
2023/04/20 09:10:23;;;;;;;17.33;5.60;;;;;;;10.00;61.41;101645.53;5062924;28;20135;-77
2023/04/20 09:12:48;;;;;;;16.73;5.65;;;;;;;9.96;61.83;101649.00;5060839;28;20549;-77
2023/04/20 09:15:30;;;;;;;15.77;5.53;;;;;;;10.24;60.95;101645.13;5064046;28;20107;-76
2023/04/20 09:17:56;;;;;;;17.90;5.88;;;;;;;10.19;59.79;101640.59;5060269;28;20037;-77
2023/04/20 09:20:33;;;;;;;17.73;5.38;;;;;;;10.51;59.24;101638.56;5062838;28;20036;-78
2023/04/20 09:23:12;;;;;;;15.88;5.47;;;;;;;10.52;58.27;101636.84;5062851;28;20029;-74
2023/04/20 09:25:37;;;;;;;16.80;5.38;;;;;;;10.21;59.46;101644.19;5064204;28;20033;-77
2023/04/20 09:28:03;;;;;;;17.20;5.45;;;;;;;10.16;61.03;101629.97;5066473;28;20495;-77
2023/04/20 09:30:39;;;;;;;16.08;5.28;;;;;;;10.36;59.71;101636.56;5097781;28;20040;-77
2023/04/20 09:33:07;;;;;;;16.95;5.43;;;;;;;10.55;58.66;101621.91;5066551;28;20048;-77
2023/04/20 09:35:33;;;;;;;16.75;5.38;;;;;;;10.63;57.79;101630.84;5064846;28;20043;-77
2023/04/20 09:37:58;;;;;;;17.92;5.78;;;;;;;10.29;58.66;101635.53;5065639;28;20033;-77
2023/04/20 09:40:25;;;;;;;17.02;5.50;;;;;;;9.89;59.42;101631.25;5065921;28;20033;-74
2023/04/20 09:42:53;;;;;;;17.52;5.50;;;;;;;9.50;61.24;101642.78;5064262;28;20111;-73
2023/04/20 09:45:19;;;;;;;18.40;6.10;;;;;;;9.40;62.74;101642.53;5066525;28;20017;-76
2023/04/20 09:47:46;;;;;;;19.00;6.00;;;;;;;9.42;63.92;101637.31;5063576;28;20103;-77
2023/04/20 09:50:12;;;;;;;17.60;5.80;;;;;;;9.38;62.53;101632.84;5059732;28;20040;-75
2023/04/20 09:52:38;;;;;;;17.30;5.90;;;;;;;9.36;62.05;101629.25;5066594;28;20471;-74
2023/04/20 09:55:05;;;;;;;17.33;5.80;;;;;;;9.59;62.33;101635.91;5064111;28;20029;-75
2023/04/20 09:57:31;;;;;;;18.00;5.60;;;;;;;9.74;60.87;101624.81;5065425;28;20464;-75
2023/04/20 09:59:58;;;;;;;16.83;5.70;;;;;;;9.86;60.36;101616.22;5065214;28;20063;-75
2023/04/20 10:02:24;;;;;;;17.08;5.68;;;;;;;10.01;61.17;101607.69;5064313;28;20029;-75
2023/04/20 10:04:57;;;;;;;16.52;5.53;;;;;;;10.68;59.95;101608.91;5065934;28;20548;-71
2023/04/20 10:07:25;;;;;;;16.58;5.57;;;;;;;11.46;56.34;101612.69;5063221;28;20029;-73
2023/04/20 10:10:11;;;;;;;18.05;5.97;;;;;;;11.52;57.27;101604.81;5065615;28;20039;-75
2023/04/20 10:13:05;;;;;;;18.20;5.88;;;;;;;11.73;55.47;101608.56;5065895;28;20478;-74
2023/04/20 10:15:38;;;;;;;17.80;6.05;;;;;;;11.52;56.79;101612.75;5052835;28;20047;-75
2023/04/20 10:18:23;;;;;;;16.88;5.60;;;;;;;11.46;56.00;101602.09;5065341;28;20047;-72
2023/04/20 10:20:50;;;;;;;19.02;5.70;;;;;;;11.41;55.91;101603.75;5060208;28;20028;-73
2023/04/20 10:23:17;;;;;;;16.45;5.93;;;;;;;11.51;56.34;101608.31;5066075;28;20024;-74
2023/04/20 10:25:57;;;;;;;15.30;5.45;;;;;;;11.42;57.21;101605.56;5062869;28;20365;-74
2023/04/20 10:28:23;;;;;;;17.17;6.05;;;;;;;11.09;57.66;101609.50;5061651;28;20090;-75
2023/04/20 10:30:52;;;;;;;18.00;6.10;;;;;;;10.93;58.23;101611.03;5065370;28;20032;-75
2023/04/20 10:33:18;;;;;;;17.67;6.03;;;;;;;10.61;57.63;101598.19;5062930;28;20476;-75
2023/04/20 10:35:53;;;;;;;16.52;5.78;;;;;;;10.43;57.67;101598.78;5066091;28;20047;-74
2023/04/20 10:38:32;;;;;;;16.92;5.90;;;;;;;10.37;58.80;101593.41;5059794;28;20036;-74
2023/04/20 10:41:18;;;;;;;18.02;6.13;;;;;;;10.45;59.35;101588.25;5064154;28;20074;-75
2023/04/20 10:43:43;;;;;;;18.23;6.28;;;;;;;11.20;59.15;101600.81;5056993;28;20086;-73
2023/04/20 10:46:17;;;;;;;19.05;6.00;;;;;;;12.10;55.83;101584.28;5065639;28;20056;-75
2023/04/20 10:48:48;;;;;;;17.85;5.90;;;;;;;13.21;54.04;101587.78;5058432;28;20459;-72
2023/04/20 10:51:14;;;;;;;16.98;5.50;;;;;;;14.75;50.95;101576.59;5058395;28;20021;-74
2023/04/20 10:53:39;;;;;;;16.85;5.50;;;;;;;16.70;45.35;101582.72;5065302;28;20036;-75
2023/04/20 10:56:05;;;;;;;16.52;5.55;;;;;;;17.33;42.55;101588.31;5062993;28;20971;-75
2023/04/20 10:58:30;;;;;;;15.13;5.40;;;;;;;16.50;43.23;101585.56;5064310;28;20059;-75
2023/04/20 11:01:00;;;;;;;17.05;5.65;;;;;;;15.22;45.50;101580.03;5064313;28;20518;-76
2023/04/20 11:03:29;;;;;;;14.90;5.47;;;;;;;14.70;46.99;101579.28;5063482;28;20029;-74
2023/04/20 11:05:59;;;;;;;17.83;5.88;;;;;;;14.26;47.29;101574.81;5064208;28;20052;-76
2023/04/20 11:08:38;;;;;;;17.25;5.95;;;;;;;13.69;49.09;101575.59;5063377;28;20044;-77
2023/04/20 11:11:04;;;;;;;18.17;5.95;;;;;;;12.96;50.35;101581.41;5062711;28;20029;-76
2023/04/20 11:13:31;;;;;;;17.10;6.20;;;;;;;12.17;51.07;101571.13;5063924;28;20383;-76
2023/04/20 11:15:57;;;;;;;17.83;6.32;;;;;;;11.65;54.43;101567.91;5063372;28;20148;-77
2023/04/20 11:18:22;;;;;;;18.17;6.18;;;;;;;12.36;52.09;101572.16;5062595;28;20104;-77
2023/04/20 11:20:52;;;;;;;17.83;6.38;;;;;;;12.59;51.21;101567.91;5064960;28;20098;-78